Love Boat — OT3861 — position and weather

sailwx.info

Track history (hours):
 
Tides and Currents Weather Stations Pressure Air Temp Water Temp Dewpoint Dewpoint Depression Visibility Wind Speed Wind Dir Waves Ship Positions

Love Boat

Last reported at 2017-Jul-20 12:11 UTC. Time now 2017-Jul-24 06:32 UTC.
Position N 50°49' E 007°01'.

Length 110 m.

Type: Ship. MMSI: 205386190.

Date/timePositionNaut miles runAvg speedWind from/ knotsBaromVisibWave heightAir tempDewpointWater temp
2017-Jul-20 12:11N 50°49' E 007°01'1 4.1
2017-Jul-20 11:54N 50°50' E 006°59'2 3.4
2017-Jul-20 11:26N 50°51' E 007°00'2 3.8
2017-Jul-20 10:59N 50°52' E 007°02'1 2.7
2017-Jul-20 10:27N 50°54' E 007°02'2 3.7
2017-Jul-20 10:00N 50°54' E 006°59'2 4.0
2017-Jul-20 09:29N 50°56' E 006°58'27 3.1
2017-Jul-20 00:51N 51°21' E 006°40'0 0.0
2017-Jul-20 00:30N 51°21' E 006°40'0 0.0
2017-Jul-20 00:00N 51°21' E 006°40'0 0.0
2017-Jul-19 23:30N 51°21' E 006°40'0 0.0
2017-Jul-19 23:00N 51°21' E 006°40'0 0.0
2017-Jul-19 22:27N 51°21' E 006°40'0 0.0
2017-Jul-19 21:59N 51°21' E 006°40'0 0.0
2017-Jul-19 21:30N 51°21' E 006°40'0 0.0
2017-Jul-19 20:58N 51°21' E 006°40'2 2.8
2017-Jul-19 20:13N 51°22' E 006°42'1 4.5
2017-Jul-19 20:00N 51°23' E 006°43'2 4.4
2017-Jul-19 19:30N 51°25' E 006°44'2 4.6
2017-Jul-19 19:00N 51°27' E 006°43'2 4.0
2017-Jul-19 18:30N 51°29' E 006°41'2 4.5
2017-Jul-19 18:00N 51°30' E 006°43'2 4.8
2017-Jul-19 17:30N 51°32' E 006°41'3 5.0
2017-Jul-19 17:00N 51°34' E 006°41'2 4.5
2017-Jul-19 16:30N 51°34' E 006°37'2 4.1
2017-Jul-19 15:59N 51°36' E 006°36'2 4.7
2017-Jul-19 15:30N 51°38' E 006°36'2 4.1
2017-Jul-19 15:00N 51°40' E 006°34'3 5.5
2017-Jul-19 14:30N 51°40' E 006°29'3 5.5
2017-Jul-19 14:00N 51°42' E 006°27'2 4.0
2017-Jul-19 13:28N 51°44' E 006°25'2 3.8
2017-Jul-19 13:00N 51°45' E 006°23'3 5.3
2017-Jul-19 12:30N 51°46' E 006°19'3 5.8
2017-Jul-19 12:00N 51°49' E 006°17'3 5.8
2017-Jul-19 11:30N 51°50' E 006°12'3 5.4
2017-Jul-19 11:00N 51°51' E 006°08'3 5.9
2017-Jul-19 10:30N 51°52' E 006°04'3 5.6
2017-Jul-19 10:00N 51°53' E 005°60'2 3.9
2017-Jul-19 09:30N 51°52' E 005°56'2 4.9
2017-Jul-19 09:00N 51°51' E 005°53'2 4.8
2017-Jul-19 08:30N 51°52' E 005°49'3 5.9
2017-Jul-19 08:00N 51°53' E 005°44'3 6.0
2017-Jul-19 07:30N 51°54' E 005°40'3 6.2
2017-Jul-19 07:00N 51°54' E 005°35'3 5.9
2017-Jul-19 06:30N 51°53' E 005°30'13 5.1
2017-Jul-19 03:56N 51°49' E 005°10'3 6.6
2017-Jul-19 03:25N 51°50' E 005°05'3 6.9
2017-Jul-19 03:00N 51°49' E 004°60'4 7.4
2017-Jul-19 02:30N 51°49' E 004°54'4 7.2
2017-Jul-19 02:00N 51°48' E 004°48'4 7.1
2017-Jul-19 01:30N 51°46' E 004°44'4 8.7
2017-Jul-19 01:00N 51°43' E 004°39'0 1.0
2017-Jul-19 00:30N 51°43' E 004°38'0 0.0
2017-Jul-19 00:00N 51°43' E 004°38'0 0.0
2017-Jul-18 23:30N 51°43' E 004°38'0 0.0
2017-Jul-18 23:00N 51°43' E 004°38'0 0.0
2017-Jul-18 22:30N 51°43' E 004°38'0 0.0
2017-Jul-18 22:00N 51°43' E 004°38'0 0.0
2017-Jul-18 21:30N 51°43' E 004°38'0 0.4
2017-Jul-18 21:00N 51°43' E 004°38'712.4
2017-Jul-18 20:27N 51°42' E 004°27'1 2.3
2017-Jul-18 20:00N 51°42' E 004°25'12 5.3
2017-Jul-18 17:48N 51°32' E 004°14'5 7.0
2017-Jul-18 17:02N 51°27' E 004°14'0 0.5
2017-Jul-18 16:59N 51°27' E 004°14'1 2.2
2017-Jul-18 16:30N 51°26' E 004°14'4 7.2
2017-Jul-18 15:56N 51°22' E 004°18'3 6.2
2017-Jul-18 15:30N 51°20' E 004°18'0 0.0
2017-Jul-18 15:00N 51°20' E 004°18'0 0.0
2017-Jul-18 14:00N 51°20' E 004°18'0 0.0
2017-Jul-18 13:30N 51°20' E 004°18'0 0.0
2017-Jul-18 13:00N 51°20' E 004°18'0 0.0
2017-Jul-18 12:30N 51°20' E 004°18'0 0.0
2017-Jul-18 12:00N 51°20' E 004°18'0 0.6
2017-Jul-18 11:30N 51°20' E 004°19'0 0.9
2017-Jul-18 10:59N 51°19' E 004°19'2 5.0
2017-Jul-18 10:30N 51°17' E 004°21'3 6.3
2017-Jul-18 10:00N 51°15' E 004°24'13 5.6
2017-Jul-18 07:42N 51°11' E 004°44'0 0.1
2017-Jul-18 07:19N 51°11' E 004°44'0 0.0
2017-Jul-18 06:15N 51°11' E 004°44'0 0.0
2017-Jul-18 05:04N 51°11' E 004°44'0 0.1
2017-Jul-18 04:59N 51°11' E 004°44'0 0.0
2017-Jul-18 04:30N 51°11' E 004°44'0 0.0
2017-Jul-18 03:59N 51°11' E 004°44'0 0.0
2017-Jul-18 03:18N 51°11' E 004°44'0 0.0
2017-Jul-18 01:53N 51°11' E 004°44'0 0.0
2017-Jul-18 01:30N 51°11' E 004°44'0 0.0
2017-Jul-18 00:57N 51°11' E 004°44'0 0.0
2017-Jul-18 00:23N 51°11' E 004°44'0 0.0
2017-Jul-17 23:51N 51°11' E 004°44'0 0.0
2017-Jul-17 23:30N 51°11' E 004°44'0 0.0
2017-Jul-17 22:52N 51°11' E 004°44'0 0.0
2017-Jul-17 22:28N 51°11' E 004°44'0 0.0
2017-Jul-17 21:38N 51°11' E 004°44'0 0.0
2017-Jul-17 21:28N 51°11' E 004°44'0 0.0
2017-Jul-17 20:59N 51°11' E 004°44'0 0.0
2017-Jul-17 20:19N 51°11' E 004°44'0 0.0
2017-Jul-17 19:57N 51°11' E 004°44'0 0.0
2017-Jul-17 19:30N 51°11' E 004°44'0 0.0
2017-Jul-17 19:00N 51°11' E 004°44'0 0.0
2017-Jul-17 18:17N 51°11' E 004°44'0 0.0
2017-Jul-17 17:59N 51°11' E 004°44'0 0.0
2017-Jul-17 17:23N 51°11' E 004°44'0 0.0
2017-Jul-17 17:00N 51°11' E 004°44'0 0.0
2017-Jul-17 13:49N 51°11' E 004°44'0 0.0
2017-Jul-17 13:19N 51°11' E 004°44'0 0.0
2017-Jul-17 13:00N 51°11' E 004°44'0 0.0
2017-Jul-17 12:21N 51°11' E 004°44'0 0.0
2017-Jul-17 12:00N 51°11' E 004°44'0 0.0
2017-Jul-17 11:28N 51°11' E 004°44'0 0.0
2017-Jul-17 11:00N 51°11' E 004°44'0 0.0
2017-Jul-17 10:26N 51°11' E 004°44'0 0.0
2017-Jul-17 10:00N 51°11' E 004°44'0 0.0
2017-Jul-17 09:24N 51°11' E 004°44'0 0.0
2017-Jul-17 08:59N 51°11' E 004°44'0 0.0
2017-Jul-17 08:30N 51°11' E 004°44'0 0.0
2017-Jul-17 07:58N 51°11' E 004°44'0 0.0
2017-Jul-17 07:27N 51°11' E 004°44'0 0.0
2017-Jul-17 06:59N 51°11' E 004°44'0 0.0
2017-Jul-17 05:54N 51°11' E 004°44'0 0.0
2017-Jul-17 05:25N 51°11' E 004°44'0 0.0
2017-Jul-17 04:56N 51°11' E 004°44'0 0.0
2017-Jul-17 04:27N 51°11' E 004°44'0 0.0
2017-Jul-17 04:00N 51°11' E 004°44'0 0.0
2017-Jul-17 03:30N 51°11' E 004°44'0 0.0
2017-Jul-17 03:00N 51°11' E 004°44'0 0.0
2017-Jul-17 02:30N 51°11' E 004°44'0 0.0
2017-Jul-17 02:00N 51°11' E 004°44'0 0.0
2017-Jul-17 01:29N 51°11' E 004°44'0 0.0
2017-Jul-17 01:00N 51°11' E 004°44'0 0.0
2017-Jul-17 00:28N 51°11' E 004°44'0 0.0
2017-Jul-16 23:59N 51°11' E 004°44'0 0.0
2017-Jul-16 23:30N 51°11' E 004°44'0 0.0
2017-Jul-16 23:00N 51°11' E 004°44'0 0.0
2017-Jul-16 22:30N 51°11' E 004°44'0 0.0
2017-Jul-16 22:00N 51°11' E 004°44'0 0.0
2017-Jul-16 21:29N 51°11' E 004°44'0 0.0
2017-Jul-16 21:00N 51°11' E 004°44'0 0.0
2017-Jul-16 20:30N 51°11' E 004°44'0 0.0
2017-Jul-16 20:00N 51°11' E 004°44'0 0.0
2017-Jul-16 19:30N 51°11' E 004°44'0 0.0
2017-Jul-16 19:00N 51°11' E 004°44'0 0.0
2017-Jul-16 18:28N 51°11' E 004°44'0 0.0
2017-Jul-16 17:54N 51°11' E 004°44'0 0.0
2017-Jul-16 17:30N 51°11' E 004°44'0 0.0
2017-Jul-16 17:00N 51°11' E 004°44'0 0.0
2017-Jul-16 16:30N 51°11' E 004°44'0 0.0
2017-Jul-16 16:00N 51°11' E 004°44'0 0.0
2017-Jul-16 15:23N 51°11' E 004°44'0 0.0
2017-Jul-16 15:00N 51°11' E 004°44'0 0.0
2017-Jul-16 14:30N 51°11' E 004°44'0 0.0
2017-Jul-16 14:00N 51°11' E 004°44'0 0.0
2017-Jul-16 13:26N 51°11' E 004°44'0 0.0
2017-Jul-16 12:58N 51°11' E 004°44'0 0.0
2017-Jul-16 12:30N 51°11' E 004°44'0 0.0
2017-Jul-16 12:00N 51°11' E 004°44'0 0.0
2017-Jul-16 11:30N 51°11' E 004°44'0 0.0
2017-Jul-16 11:00N 51°11' E 004°44'0 0.0
2017-Jul-16 10:27N 51°11' E 004°44'0 0.0
2017-Jul-16 09:58N 51°11' E 004°44'0 0.0
2017-Jul-16 09:28N 51°11' E 004°44'0 0.0
2017-Jul-16 09:00N 51°11' E 004°44'0 0.0
2017-Jul-16 08:24N 51°11' E 004°44'0 0.0
2017-Jul-16 08:00N 51°11' E 004°44'0 0.0
2017-Jul-16 07:30N 51°11' E 004°44'0 0.0
2017-Jul-16 07:00N 51°11' E 004°44'0 0.0
2017-Jul-16 06:30N 51°11' E 004°44'0 0.0
2017-Jul-16 05:58N 51°11' E 004°44'0 0.0
2017-Jul-16 05:28N 51°11' E 004°44'0 0.0
2017-Jul-16 04:56N 51°11' E 004°44'0 0.0
2017-Jul-16 04:27N 51°11' E 004°44'0 0.0
2017-Jul-16 03:58N 51°11' E 004°44'0 0.0
2017-Jul-16 03:22N 51°11' E 004°44'0 0.0
2017-Jul-16 03:00N 51°11' E 004°44'0 0.0
2017-Jul-16 02:29N 51°11' E 004°44'0 0.0
2017-Jul-16 01:59N 51°11' E 004°44'0 0.0
2017-Jul-16 01:25N 51°11' E 004°44'0 0.0
2017-Jul-16 00:57N 51°11' E 004°44'0 0.0
2017-Jul-16 00:30N 51°11' E 004°44'0 0.0
2017-Jul-16 00:00N 51°11' E 004°44'0 0.0
2017-Jul-15 23:27N 51°11' E 004°44'0 0.0
2017-Jul-15 23:00N 51°11' E 004°44'0 0.0
2017-Jul-15 22:30N 51°11' E 004°44'0 0.0
2017-Jul-15 21:57N 51°11' E 004°44'0 0.0
2017-Jul-15 21:29N 51°11' E 004°44'0 0.0
2017-Jul-15 21:00N 51°11' E 004°44'0 0.0
2017-Jul-15 20:30N 51°11' E 004°44'0 0.0
2017-Jul-15 20:00N 51°11' E 004°44'0 0.0
2017-Jul-15 19:30N 51°11' E 004°44'0 0.0
2017-Jul-15 18:57N 51°11' E 004°44'0 0.0
2017-Jul-15 18:23N 51°11' E 004°44'0 0.0
2017-Jul-15 18:00N 51°11' E 004°44'0 0.0
2017-Jul-15 17:30N 51°11' E 004°44'0 0.0
2017-Jul-15 17:00N 51°11' E 004°44'0 0.0
2017-Jul-15 16:26N 51°11' E 004°44'0 0.0
2017-Jul-15 15:56N 51°11' E 004°44'0 0.0
2017-Jul-15 15:30N 51°11' E 004°44'0 0.0
2017-Jul-15 15:00N 51°11' E 004°44'0 0.0
2017-Jul-15 13:59N 51°11' E 004°44'10 3.4
2017-Jul-15 10:58N 51°14' E 004°28'2 5.0
2017-Jul-15 10:30N 51°15' E 004°25'3 6.4
2017-Jul-15 10:00N 51°16' E 004°20'4 7.6
2017-Jul-15 09:30N 51°20' E 004°18'3 6.2
2017-Jul-15 09:00N 51°23' E 004°16'4 7.2
2017-Jul-15 08:30N 51°26' E 004°14'1 1.6
2017-Jul-15 08:00N 51°27' E 004°14'16 6.4
2017-Jul-15 05:30N 51°41' E 004°25'0 0.0
2017-Jul-15 05:00N 51°41' E 004°25'1 2.0
2017-Jul-15 04:30N 51°42' E 004°26'4 8.7
2017-Jul-15 04:00N 51°42' E 004°33'3 5.5
2017-Jul-15 03:30N 51°43' E 004°37'1 2.6
2017-Jul-15 03:00N 51°43' E 004°39'0 0.0
2017-Jul-15 02:30N 51°43' E 004°39'0 0.0
2017-Jul-15 02:00N 51°43' E 004°39'0 0.0
2017-Jul-15 01:30N 51°43' E 004°39'0 0.0
2017-Jul-15 01:00N 51°43' E 004°39'0 0.0
2017-Jul-15 00:30N 51°43' E 004°39'0 0.0
2017-Jul-15 00:00N 51°43' E 004°39'0 0.0
2017-Jul-14 23:30N 51°43' E 004°39'0 0.0
2017-Jul-14 23:00N 51°43' E 004°39'0 0.0
2017-Jul-14 22:30N 51°43' E 004°39'0 0.0
2017-Jul-14 22:00N 51°43' E 004°39'0 0.0
2017-Jul-14 21:30N 51°43' E 004°39'0 0.0
2017-Jul-14 21:00N 51°43' E 004°39'2 4.2
2017-Jul-14 20:30N 51°44' E 004°42'4 7.4
2017-Jul-14 19:59N 51°47' E 004°46'4 7.6
2017-Jul-14 19:30N 51°48' E 004°52'4 7.2
2017-Jul-14 19:00N 51°50' E 004°57'19 7.1
2017-Jul-14 16:23N 51°53' E 005°26'3 8.5
2017-Jul-14 15:59N 51°54' E 005°32'4 8.6
2017-Jul-14 15:29N 51°54' E 005°39'4 8.6
2017-Jul-14 15:00N 51°53' E 005°45'4 8.6
2017-Jul-14 14:30N 51°51' E 005°51'3 6.8
2017-Jul-14 14:00N 51°52' E 005°57'3 6.2
2017-Jul-14 13:30N 51°53' E 006°02'4 8.4
2017-Jul-14 13:00N 51°51' E 006°08'4 8.7
2017-Jul-14 12:30N 51°50' E 006°15'4 8.5
2017-Jul-14 12:00N 51°47' E 006°20'4 7.8
2017-Jul-14 11:30N 51°45' E 006°25'3 6.7
2017-Jul-14 11:00N 51°42' E 006°28'4 7.8
2017-Jul-14 10:30N 51°39' E 006°33'3 5.7
2017-Jul-14 10:00N 51°37' E 006°35'4 6.2
2017-Jul-14 09:26N 51°35' E 006°39'3 7.1
2017-Jul-14 09:00N 51°32' E 006°41'3 5.8
2017-Jul-14 08:30N 51°29' E 006°41'4 7.2
2017-Jul-14 08:00N 51°26' E 006°43'4 6.7
2017-Jul-14 07:26N 51°22' E 006°41'27 2.3
2017-Jul-13 19:54N 50°58' E 006°60'3 7.8
2017-Jul-13 19:29N 50°55' E 006°58'4 6.5
2017-Jul-13 18:54N 50°52' E 007°02'3 6.4
2017-Jul-13 18:24N 50°50' E 006°60'4 7.9
2017-Jul-13 17:56N 50°47' E 007°03'4 8.2
2017-Jul-13 17:29N 50°44' E 007°07'  
Track history (hours):
 
Tides and Currents Weather Stations Pressure Air Temp Water Temp Dewpoint Dewpoint Depression Visibility Wind Speed Wind Dir Waves Ship Positions

Love Boat

Last reported at 2017-Jul-20 12:11 UTC. Time now 2017-Jul-24 06:32 UTC.
Position N 50°49' E 007°01'.

Length 110 m.

Type: Ship. MMSI: 205386190.

Date/timePositionNaut miles runAvg speedWind from/ knotsBaromVisibWave heightAir tempDewpointWater temp
2017-Jul-20 12:11N 50°49' E 007°01'1 4.1
2017-Jul-20 11:54N 50°50' E 006°59'2 3.4
2017-Jul-20 11:26N 50°51' E 007°00'2 3.8
2017-Jul-20 10:59N 50°52' E 007°02'1 2.7
2017-Jul-20 10:27N 50°54' E 007°02'2 3.7
2017-Jul-20 10:00N 50°54' E 006°59'2 4.0
2017-Jul-20 09:29N 50°56' E 006°58'27 3.1
2017-Jul-20 00:51N 51°21' E 006°40'0 0.0
2017-Jul-20 00:30N 51°21' E 006°40'0 0.0
2017-Jul-20 00:00N 51°21' E 006°40'0 0.0
2017-Jul-19 23:30N 51°21' E 006°40'0 0.0
2017-Jul-19 23:00N 51°21' E 006°40'0 0.0
2017-Jul-19 22:27N 51°21' E 006°40'0 0.0
2017-Jul-19 21:59N 51°21' E 006°40'0 0.0
2017-Jul-19 21:30N 51°21' E 006°40'0 0.0
2017-Jul-19 20:58N 51°21' E 006°40'2 2.8
2017-Jul-19 20:13N 51°22' E 006°42'1 4.5
2017-Jul-19 20:00N 51°23' E 006°43'2 4.4
2017-Jul-19 19:30N 51°25' E 006°44'2 4.6
2017-Jul-19 19:00N 51°27' E 006°43'2 4.0
2017-Jul-19 18:30N 51°29' E 006°41'2 4.5
2017-Jul-19 18:00N 51°30' E 006°43'2 4.8
2017-Jul-19 17:30N 51°32' E 006°41'3 5.0
2017-Jul-19 17:00N 51°34' E 006°41'2 4.5
2017-Jul-19 16:30N 51°34' E 006°37'2 4.1
2017-Jul-19 15:59N 51°36' E 006°36'2 4.7
2017-Jul-19 15:30N 51°38' E 006°36'2 4.1
2017-Jul-19 15:00N 51°40' E 006°34'3 5.5
2017-Jul-19 14:30N 51°40' E 006°29'3 5.5
2017-Jul-19 14:00N 51°42' E 006°27'2 4.0
2017-Jul-19 13:28N 51°44' E 006°25'2 3.8
2017-Jul-19 13:00N 51°45' E 006°23'3 5.3
2017-Jul-19 12:30N 51°46' E 006°19'3 5.8
2017-Jul-19 12:00N 51°49' E 006°17'3 5.8
2017-Jul-19 11:30N 51°50' E 006°12'3 5.4
2017-Jul-19 11:00N 51°51' E 006°08'3 5.9
2017-Jul-19 10:30N 51°52' E 006°04'3 5.6
2017-Jul-19 10:00N 51°53' E 005°60'2 3.9
2017-Jul-19 09:30N 51°52' E 005°56'2 4.9
2017-Jul-19 09:00N 51°51' E 005°53'2 4.8
2017-Jul-19 08:30N 51°52' E 005°49'3 5.9
2017-Jul-19 08:00N 51°53' E 005°44'3 6.0
2017-Jul-19 07:30N 51°54' E 005°40'3 6.2
2017-Jul-19 07:00N 51°54' E 005°35'3 5.9
2017-Jul-19 06:30N 51°53' E 005°30'13 5.1
2017-Jul-19 03:56N 51°49' E 005°10'3 6.6
2017-Jul-19 03:25N 51°50' E 005°05'3 6.9
2017-Jul-19 03:00N 51°49' E 004°60'4 7.4
2017-Jul-19 02:30N 51°49' E 004°54'4 7.2
2017-Jul-19 02:00N 51°48' E 004°48'4 7.1
2017-Jul-19 01:30N 51°46' E 004°44'4 8.7
2017-Jul-19 01:00N 51°43' E 004°39'0 1.0
2017-Jul-19 00:30N 51°43' E 004°38'0 0.0
2017-Jul-19 00:00N 51°43' E 004°38'0 0.0
2017-Jul-18 23:30N 51°43' E 004°38'0 0.0
2017-Jul-18 23:00N 51°43' E 004°38'0 0.0
2017-Jul-18 22:30N 51°43' E 004°38'0 0.0
2017-Jul-18 22:00N 51°43' E 004°38'0 0.0
2017-Jul-18 21:30N 51°43' E 004°38'0 0.4
2017-Jul-18 21:00N 51°43' E 004°38'712.4
2017-Jul-18 20:27N 51°42' E 004°27'1 2.3
2017-Jul-18 20:00N 51°42' E 004°25'12 5.3
2017-Jul-18 17:48N 51°32' E 004°14'5 7.0
2017-Jul-18 17:02N 51°27' E 004°14'0 0.5
2017-Jul-18 16:59N 51°27' E 004°14'1 2.2
2017-Jul-18 16:30N 51°26' E 004°14'4 7.2
2017-Jul-18 15:56N 51°22' E 004°18'3 6.2
2017-Jul-18 15:30N 51°20' E 004°18'0 0.0
2017-Jul-18 15:00N 51°20' E 004°18'0 0.0
2017-Jul-18 14:00N 51°20' E 004°18'0 0.0
2017-Jul-18 13:30N 51°20' E 004°18'0 0.0
2017-Jul-18 13:00N 51°20' E 004°18'0 0.0
2017-Jul-18 12:30N 51°20' E 004°18'0 0.0
2017-Jul-18 12:00N 51°20' E 004°18'0 0.6
2017-Jul-18 11:30N 51°20' E 004°19'0 0.9
2017-Jul-18 10:59N 51°19' E 004°19'2 5.0
2017-Jul-18 10:30N 51°17' E 004°21'3 6.3
2017-Jul-18 10:00N 51°15' E 004°24'13 5.6
2017-Jul-18 07:42N 51°11' E 004°44'0 0.1
2017-Jul-18 07:19N 51°11' E 004°44'0 0.0
2017-Jul-18 06:15N 51°11' E 004°44'0 0.0
2017-Jul-18 05:04N 51°11' E 004°44'0 0.1
2017-Jul-18 04:59N 51°11' E 004°44'0 0.0
2017-Jul-18 04:30N 51°11' E 004°44'0 0.0
2017-Jul-18 03:59N 51°11' E 004°44'0 0.0
2017-Jul-18 03:18N 51°11' E 004°44'0 0.0
2017-Jul-18 01:53N 51°11' E 004°44'0 0.0
2017-Jul-18 01:30N 51°11' E 004°44'0 0.0
2017-Jul-18 00:57N 51°11' E 004°44'0 0.0
2017-Jul-18 00:23N 51°11' E 004°44'0 0.0
2017-Jul-17 23:51N 51°11' E 004°44'0 0.0
2017-Jul-17 23:30N 51°11' E 004°44'0 0.0
2017-Jul-17 22:52N 51°11' E 004°44'0 0.0
2017-Jul-17 22:28N 51°11' E 004°44'0 0.0
2017-Jul-17 21:38N 51°11' E 004°44'0 0.0
2017-Jul-17 21:28N 51°11' E 004°44'0 0.0
2017-Jul-17 20:59N 51°11' E 004°44'0 0.0
2017-Jul-17 20:19N 51°11' E 004°44'0 0.0
2017-Jul-17 19:57N 51°11' E 004°44'0 0.0
2017-Jul-17 19:30N 51°11' E 004°44'0 0.0
2017-Jul-17 19:00N 51°11' E 004°44'0 0.0
2017-Jul-17 18:17N 51°11' E 004°44'0 0.0
2017-Jul-17 17:59N 51°11' E 004°44'0 0.0
2017-Jul-17 17:23N 51°11' E 004°44'0 0.0
2017-Jul-17 17:00N 51°11' E 004°44'0 0.0
2017-Jul-17 13:49N 51°11' E 004°44'0 0.0
2017-Jul-17 13:19N 51°11' E 004°44'0 0.0
2017-Jul-17 13:00N 51°11' E 004°44'0 0.0
2017-Jul-17 12:21N 51°11' E 004°44'0 0.0
2017-Jul-17 12:00N 51°11' E 004°44'0 0.0
2017-Jul-17 11:28N 51°11' E 004°44'0 0.0
2017-Jul-17 11:00N 51°11' E 004°44'0 0.0
2017-Jul-17 10:26N 51°11' E 004°44'0 0.0
2017-Jul-17 10:00N 51°11' E 004°44'0 0.0
2017-Jul-17 09:24N 51°11' E 004°44'0 0.0
2017-Jul-17 08:59N 51°11' E 004°44'0 0.0
2017-Jul-17 08:30N 51°11' E 004°44'0 0.0
2017-Jul-17 07:58N 51°11' E 004°44'0 0.0
2017-Jul-17 07:27N 51°11' E 004°44'0 0.0
2017-Jul-17 06:59N 51°11' E 004°44'0 0.0
2017-Jul-17 05:54N 51°11' E 004°44'0 0.0
2017-Jul-17 05:25N 51°11' E 004°44'0 0.0
2017-Jul-17 04:56N 51°11' E 004°44'0 0.0
2017-Jul-17 04:27N 51°11' E 004°44'0 0.0
2017-Jul-17 04:00N 51°11' E 004°44'0 0.0
2017-Jul-17 03:30N 51°11' E 004°44'0 0.0
2017-Jul-17 03:00N 51°11' E 004°44'0 0.0
2017-Jul-17 02:30N 51°11' E 004°44'0 0.0
2017-Jul-17 02:00N 51°11' E 004°44'0 0.0
2017-Jul-17 01:29N 51°11' E 004°44'0 0.0
2017-Jul-17 01:00N 51°11' E 004°44'0 0.0
2017-Jul-17 00:28N 51°11' E 004°44'0 0.0
2017-Jul-16 23:59N 51°11' E 004°44'0 0.0
2017-Jul-16 23:30N 51°11' E 004°44'0 0.0
2017-Jul-16 23:00N 51°11' E 004°44'0 0.0
2017-Jul-16 22:30N 51°11' E 004°44'0 0.0
2017-Jul-16 22:00N 51°11' E 004°44'0 0.0
2017-Jul-16 21:29N 51°11' E 004°44'0 0.0
2017-Jul-16 21:00N 51°11' E 004°44'0 0.0
2017-Jul-16 20:30N 51°11' E 004°44'0 0.0
2017-Jul-16 20:00N 51°11' E 004°44'0 0.0
2017-Jul-16 19:30N 51°11' E 004°44'0 0.0
2017-Jul-16 19:00N 51°11' E 004°44'0 0.0
2017-Jul-16 18:28N 51°11' E 004°44'0 0.0
2017-Jul-16 17:54N 51°11' E 004°44'0 0.0
2017-Jul-16 17:30N 51°11' E 004°44'0 0.0
2017-Jul-16 17:00N 51°11' E 004°44'0 0.0
2017-Jul-16 16:30N 51°11' E 004°44'0 0.0
2017-Jul-16 16:00N 51°11' E 004°44'0 0.0
2017-Jul-16 15:23N 51°11' E 004°44'0 0.0
2017-Jul-16 15:00N 51°11' E 004°44'0 0.0
2017-Jul-16 14:30N 51°11' E 004°44'0 0.0
2017-Jul-16 14:00N 51°11' E 004°44'0 0.0
2017-Jul-16 13:26N 51°11' E 004°44'0 0.0
2017-Jul-16 12:58N 51°11' E 004°44'0 0.0
2017-Jul-16 12:30N 51°11' E 004°44'0 0.0
2017-Jul-16 12:00N 51°11' E 004°44'0 0.0
2017-Jul-16 11:30N 51°11' E 004°44'0 0.0
2017-Jul-16 11:00N 51°11' E 004°44'0 0.0
2017-Jul-16 10:27N 51°11' E 004°44'0 0.0
2017-Jul-16 09:58N 51°11' E 004°44'0 0.0
2017-Jul-16 09:28N 51°11' E 004°44'0 0.0
2017-Jul-16 09:00N 51°11' E 004°44'0 0.0
2017-Jul-16 08:24N 51°11' E 004°44'0 0.0
2017-Jul-16 08:00N 51°11' E 004°44'0 0.0
2017-Jul-16 07:30N 51°11' E 004°44'0 0.0
2017-Jul-16 07:00N 51°11' E 004°44'0 0.0
2017-Jul-16 06:30N 51°11' E 004°44'0 0.0
2017-Jul-16 05:58N 51°11' E 004°44'0 0.0
2017-Jul-16 05:28N 51°11' E 004°44'0 0.0
2017-Jul-16 04:56N 51°11' E 004°44'0 0.0
2017-Jul-16 04:27N 51°11' E 004°44'0 0.0
2017-Jul-16 03:58N 51°11' E 004°44'0 0.0
2017-Jul-16 03:22N 51°11' E 004°44'0 0.0
2017-Jul-16 03:00N 51°11' E 004°44'0 0.0
2017-Jul-16 02:29N 51°11' E 004°44'0 0.0
2017-Jul-16 01:59N 51°11' E 004°44'0 0.0
2017-Jul-16 01:25N 51°11' E 004°44'0 0.0
2017-Jul-16 00:57N 51°11' E 004°44'0 0.0
2017-Jul-16 00:30N 51°11' E 004°44'0 0.0
2017-Jul-16 00:00N 51°11' E 004°44'0 0.0
2017-Jul-15 23:27N 51°11' E 004°44'0 0.0
2017-Jul-15 23:00N 51°11' E 004°44'0 0.0
2017-Jul-15 22:30N 51°11' E 004°44'0 0.0
2017-Jul-15 21:57N 51°11' E 004°44'0 0.0
2017-Jul-15 21:29N 51°11' E 004°44'0 0.0
2017-Jul-15 21:00N 51°11' E 004°44'0 0.0
2017-Jul-15 20:30N 51°11' E 004°44'0 0.0
2017-Jul-15 20:00N 51°11' E 004°44'0 0.0
2017-Jul-15 19:30N 51°11' E 004°44'0 0.0
2017-Jul-15 18:57N 51°11' E 004°44'0 0.0
2017-Jul-15 18:23N 51°11' E 004°44'0 0.0
2017-Jul-15 18:00N 51°11' E 004°44'0 0.0
2017-Jul-15 17:30N 51°11' E 004°44'0 0.0
2017-Jul-15 17:00N 51°11' E 004°44'0 0.0
2017-Jul-15 16:26N 51°11' E 004°44'0 0.0
2017-Jul-15 15:56N 51°11' E 004°44'0 0.0
2017-Jul-15 15:30N 51°11' E 004°44'0 0.0
2017-Jul-15 15:00N 51°11' E 004°44'0 0.0
2017-Jul-15 13:59N 51°11' E 004°44'10 3.4
2017-Jul-15 10:58N 51°14' E 004°28'2 5.0
2017-Jul-15 10:30N 51°15' E 004°25'3 6.4
2017-Jul-15 10:00N 51°16' E 004°20'4 7.6
2017-Jul-15 09:30N 51°20' E 004°18'3 6.2
2017-Jul-15 09:00N 51°23' E 004°16'4 7.2
2017-Jul-15 08:30N 51°26' E 004°14'1 1.6
2017-Jul-15 08:00N 51°27' E 004°14'16 6.4
2017-Jul-15 05:30N 51°41' E 004°25'0 0.0
2017-Jul-15 05:00N 51°41' E 004°25'1 2.0
2017-Jul-15 04:30N 51°42' E 004°26'4 8.7
2017-Jul-15 04:00N 51°42' E 004°33'3 5.5
2017-Jul-15 03:30N 51°43' E 004°37'1 2.6
2017-Jul-15 03:00N 51°43' E 004°39'0 0.0
2017-Jul-15 02:30N 51°43' E 004°39'0 0.0
2017-Jul-15 02:00N 51°43' E 004°39'0 0.0
2017-Jul-15 01:30N 51°43' E 004°39'0 0.0
2017-Jul-15 01:00N 51°43' E 004°39'0 0.0
2017-Jul-15 00:30N 51°43' E 004°39'0 0.0
2017-Jul-15 00:00N 51°43' E 004°39'0 0.0
2017-Jul-14 23:30N 51°43' E 004°39'0 0.0
2017-Jul-14 23:00N 51°43' E 004°39'0 0.0
2017-Jul-14 22:30N 51°43' E 004°39'0 0.0
2017-Jul-14 22:00N 51°43' E 004°39'0 0.0
2017-Jul-14 21:30N 51°43' E 004°39'0 0.0
2017-Jul-14 21:00N 51°43' E 004°39'2 4.2
2017-Jul-14 20:30N 51°44' E 004°42'4 7.4
2017-Jul-14 19:59N 51°47' E 004°46'4 7.6
2017-Jul-14 19:30N 51°48' E 004°52'4 7.2
2017-Jul-14 19:00N 51°50' E 004°57'19 7.1
2017-Jul-14 16:23N 51°53' E 005°26'3 8.5
2017-Jul-14 15:59N 51°54' E 005°32'4 8.6
2017-Jul-14 15:29N 51°54' E 005°39'4 8.6
2017-Jul-14 15:00N 51°53' E 005°45'4 8.6
2017-Jul-14 14:30N 51°51' E 005°51'3 6.8
2017-Jul-14 14:00N 51°52' E 005°57'3 6.2
2017-Jul-14 13:30N 51°53' E 006°02'4 8.4
2017-Jul-14 13:00N 51°51' E 006°08'4 8.7
2017-Jul-14 12:30N 51°50' E 006°15'4 8.5
2017-Jul-14 12:00N 51°47' E 006°20'4 7.8
2017-Jul-14 11:30N 51°45' E 006°25'3 6.7
2017-Jul-14 11:00N 51°42' E 006°28'4 7.8
2017-Jul-14 10:30N 51°39' E 006°33'3 5.7
2017-Jul-14 10:00N 51°37' E 006°35'4 6.2
2017-Jul-14 09:26N 51°35' E 006°39'3 7.1
2017-Jul-14 09:00N 51°32' E 006°41'3 5.8
2017-Jul-14 08:30N 51°29' E 006°41'4 7.2
2017-Jul-14 08:00N 51°26' E 006°43'4 6.7
2017-Jul-14 07:26N 51°22' E 006°41'27 2.3
2017-Jul-13 19:54N 50°58' E 006°60'3 7.8
2017-Jul-13 19:29N 50°55' E 006°58'4 6.5
2017-Jul-13 18:54N 50°52' E 007°02'3 6.4
2017-Jul-13 18:24N 50°50' E 006°60'4 7.9
2017-Jul-13 17:56N 50°47' E 007°03'4 8.2
2017-Jul-13 17:29N 50°44' E 007°07'  

Dump ship's entire track history